Decoded Metar for KMGM (MONTGOMERY in AL, USA) (IATA:MGM) | Meteo·Mobile Aviation Weather
aviador You're here:

KMGM Decoded Metar

MONTGOMERY in AL, USA
Report Time2019-05-25 22:53:00
UTC Time2019-05-25 23:54:50
Flight Rules vfr VFR
Wind290° at 06 kt
W.Decomp.*RWY 28: 5.9 kt HW 1.1 kt RCW
RWY 21: 0.9 kt HW 5.9 kt RCW
Visibility9999 m
Phenomena:N/A
Clouds:N/A
Expected CloudBase > 6,000 ft AGL from Temp-Dew spread
CeilingNone
Temp34°C (ISA +19)
Dew Point19°C (41% RH)
Heat Index35.7°C
QNH1020 hPa
Density Alt2,470 ft
Elevation207 ft
Report Wrong Elevation
Raw Report
METAR KMGM 252253Z 29006KT 10SM CLR 34/19 A3011 RMK AO2 SLP192 T03390189=

Extra information for KMGM:More info

Metar Taf Metar & Taf Last 4 Metars F.Rules Stats Wind Profile Meteogram Temp Stats Airport Information Weather charts Add Link Nearby VenuesMetar ALERT Operation Metar Decoded Social comments

AIRNAV info for KMGM